Terminal Aerodrome Forecast
Issued by NWS

Home | Current Version | Previous Version | Text Only | Print | Product List | Glossary On
Versions: 1 2 3 4 5 6 7 8 9 10 11 12 13 14 15 16
000
FTUS45 KSLC 061358 AAA
TAFENV
TAF AMD
KENV 061358Z 0614/0712 01012G18KT P6SM BKN130
     FM061600 10008KT P6SM BKN150
     FM062200 33011G20KT P6SM VCSH BKN080 OVC100
     FM070300 30010KT P6SM BKN080 BKN100
      AMD LTD TO CLD VIS AND WIND=

USA.gov is the U.S. government's official web portal to all federal, state and local government web resources and services.